createdAt,value
2019-03-05T00:00:18.763Z,993.64
2019-03-05T00:01:15.852Z,993.67
2019-03-05T00:03:16.976Z,993.64
2019-03-05T00:04:19.294Z,993.62
2019-03-05T00:05:15.813Z,993.58
2019-03-05T00:07:17.005Z,993.66
2019-03-05T00:09:16.915Z,993.64
2019-03-05T00:11:16.871Z,993.61
2019-03-05T00:12:19.389Z,993.74
2019-03-05T00:13:15.722Z,993.71
2019-03-05T00:14:18.623Z,993.73
2019-03-05T00:15:15.732Z,993.75
2019-03-05T00:16:36.678Z,993.60
2019-03-05T00:17:15.662Z,993.65
2019-03-05T00:19:15.645Z,993.66
2019-03-05T00:20:19.590Z,993.75
2019-03-05T00:21:15.621Z,993.73
2019-03-05T00:23:15.601Z,993.83
2019-03-05T00:25:15.627Z,993.76
2019-03-05T00:27:15.556Z,993.77
2019-03-05T00:29:15.558Z,993.80
2019-03-05T00:30:19.742Z,993.90
2019-03-05T00:31:15.548Z,993.82
2019-03-05T00:33:15.488Z,993.82
2019-03-05T00:34:17.613Z,993.92
2019-03-05T00:35:15.489Z,993.86
2019-03-05T00:37:16.597Z,993.91
2019-03-05T00:38:15.470Z,993.96
2019-03-05T00:39:15.467Z,993.93
2019-03-05T00:40:15.519Z,993.99
2019-03-05T00:41:15.453Z,993.88
2019-03-05T00:42:15.505Z,994.04
2019-03-05T00:43:15.382Z,993.99
2019-03-05T00:44:15.408Z,994.02
2019-03-05T00:45:15.373Z,993.94
2019-03-05T00:46:15.456Z,993.99
2019-03-05T00:47:15.336Z,994.05
2019-03-05T00:48:15.438Z,994.01
2019-03-05T00:49:15.307Z,994.11
2019-03-05T00:50:15.354Z,994.08
2019-03-05T00:51:24.502Z,994.13
2019-03-05T00:52:16.274Z,994.01
2019-03-05T00:53:15.374Z,994.13
2019-03-05T00:54:15.269Z,994.04
2019-03-05T00:55:15.282Z,994.03
2019-03-05T00:56:15.266Z,994.06
2019-03-05T00:57:15.302Z,994.04
2019-03-05T00:58:15.203Z,993.95
2019-03-05T00:59:15.311Z,994.13
2019-03-05T01:00:15.196Z,994.14
2019-03-05T01:01:15.256Z,994.14
2019-03-05T01:02:15.167Z,994.10
2019-03-05T01:03:15.234Z,994.07
2019-03-05T01:04:15.139Z,994.13
2019-03-05T01:05:15.248Z,994.06
2019-03-05T01:06:15.162Z,994.08
2019-03-05T01:07:15.174Z,993.97
2019-03-05T01:08:15.112Z,994.07
2019-03-05T01:09:15.179Z,994.07
2019-03-05T01:10:15.074Z,994.04
2019-03-05T01:11:15.120Z,994.16
2019-03-05T01:12:15.056Z,994.19
2019-03-05T01:13:15.143Z,994.21
2019-03-05T01:14:15.028Z,994.17
2019-03-05T01:15:15.119Z,994.10
2019-03-05T01:16:15.015Z,994.28
2019-03-05T01:17:15.022Z,994.25
2019-03-05T01:18:15.013Z,994.24
2019-03-05T01:19:15.041Z,994.23
2019-03-05T01:20:14.968Z,994.18
2019-03-05T01:21:15.054Z,994.36
2019-03-05T01:22:14.987Z,994.26
2019-03-05T01:23:14.962Z,994.20
2019-03-05T01:24:14.917Z,994.28
2019-03-05T01:25:14.977Z,994.36
2019-03-05T01:26:14.912Z,994.34
2019-03-05T01:27:15.025Z,994.19
2019-03-05T01:28:14.900Z,994.34
2019-03-05T01:29:14.907Z,994.22
2019-03-05T01:30:14.852Z,994.29
2019-03-05T01:31:14.921Z,994.31
2019-03-05T01:32:14.859Z,994.27
2019-03-05T01:33:14.935Z,994.32
2019-03-05T01:34:14.822Z,994.31
2019-03-05T01:35:14.845Z,994.33
2019-03-05T01:36:14.821Z,994.33
2019-03-05T01:37:14.888Z,994.35
2019-03-05T01:38:14.769Z,994.30
2019-03-05T01:39:14.904Z,994.42
2019-03-05T01:40:14.742Z,994.35
2019-03-05T01:41:14.741Z,994.42
2019-03-05T01:42:14.759Z,994.25
2019-03-05T01:43:14.797Z,994.33
2019-03-05T01:44:14.728Z,994.37
2019-03-05T01:45:14.806Z,994.31
2019-03-05T01:46:14.715Z,994.36
2019-03-05T01:47:14.728Z,994.30
2019-03-05T01:48:14.688Z,994.36
2019-03-05T01:49:14.840Z,994.47
2019-03-05T01:50:14.641Z,994.35
2019-03-05T01:51:14.650Z,994.47
2019-03-05T01:52:14.619Z,994.27
2019-03-05T01:53:14.688Z,994.37
2019-03-05T01:54:14.618Z,994.39
2019-03-05T01:55:14.674Z,994.41
2019-03-05T01:56:14.566Z,994.36
2019-03-05T01:57:14.582Z,994.34
2019-03-05T01:58:14.578Z,994.47
2019-03-05T01:59:14.638Z,994.43
2019-03-05T02:00:14.527Z,994.42
2019-03-05T02:01:14.611Z,994.29
2019-03-05T02:02:14.503Z,994.27
2019-03-05T02:03:14.527Z,994.29
2019-03-05T02:04:14.524Z,994.35
2019-03-05T02:05:14.481Z,994.34
2019-03-05T02:06:14.458Z,994.46
2019-03-05T02:07:14.557Z,994.47
2019-03-05T02:08:14.450Z,994.29
2019-03-05T02:09:14.497Z,994.36
2019-03-05T02:10:14.415Z,994.41
2019-03-05T02:11:14.486Z,994.43
2019-03-05T02:12:14.411Z,994.35
2019-03-05T02:13:14.489Z,994.39
2019-03-05T02:14:14.405Z,994.42
2019-03-05T02:15:14.428Z,994.44
2019-03-05T02:16:14.350Z,994.42
2019-03-05T02:17:14.418Z,994.33
2019-03-05T02:18:14.327Z,994.47
2019-03-05T02:19:14.463Z,994.50
2019-03-05T02:20:14.318Z,994.65
2019-03-05T02:21:14.343Z,994.50
2019-03-05T02:22:14.280Z,994.43
2019-03-05T02:23:14.359Z,994.40
2019-03-05T02:24:14.281Z,994.51
2019-03-05T02:25:14.403Z,994.39
2019-03-05T02:26:14.259Z,994.46
2019-03-05T02:27:14.287Z,994.51
2019-03-05T02:28:14.216Z,994.51
2019-03-05T02:29:14.296Z,994.39
2019-03-05T02:30:14.223Z,994.52
2019-03-05T02:31:14.315Z,994.51
2019-03-05T02:32:14.181Z,994.57
2019-03-05T02:33:14.218Z,994.48
2019-03-05T02:34:14.152Z,994.55
2019-03-05T02:35:14.265Z,994.49
2019-03-05T02:36:14.133Z,994.45
2019-03-05T02:37:14.149Z,994.47
2019-03-05T02:38:14.111Z,994.52
2019-03-05T02:39:14.174Z,994.41
2019-03-05T02:40:14.114Z,994.52
2019-03-05T02:41:14.186Z,994.52
2019-03-05T02:42:14.068Z,994.57
2019-03-05T02:43:14.089Z,994.47
2019-03-05T02:44:14.042Z,994.48
2019-03-05T02:45:14.134Z,994.61
2019-03-05T02:46:14.041Z,994.56
2019-03-05T02:47:14.114Z,994.71
2019-03-05T02:48:13.999Z,994.61
2019-03-05T02:49:14.026Z,994.72
2019-03-05T02:50:13.980Z,994.64
2019-03-05T02:51:14.065Z,994.71
2019-03-05T02:52:13.972Z,994.97
2019-03-05T02:53:14.060Z,994.99
2019-03-05T02:54:13.936Z,995.13
2019-03-05T02:55:13.968Z,995.22
2019-03-05T02:56:13.952Z,995.29
2019-03-05T02:57:13.989Z,995.42
2019-03-05T02:58:13.902Z,995.48
2019-03-05T02:59:14.006Z,995.47
2019-03-05T03:00:13.872Z,995.49
2019-03-05T03:01:13.943Z,995.43
2019-03-05T03:02:13.920Z,995.28
2019-03-05T03:03:13.931Z,995.34
2019-03-05T03:04:13.826Z,995.32
2019-03-05T03:05:13.962Z,995.34
2019-03-05T03:06:13.853Z,995.29
2019-03-05T03:07:13.849Z,995.37
2019-03-05T03:08:13.810Z,995.31
2019-03-05T03:09:13.866Z,995.19
2019-03-05T03:10:13.802Z,994.94
2019-03-05T03:11:13.878Z,995.00
2019-03-05T03:12:13.774Z,994.95
2019-03-05T03:13:13.797Z,994.77
2019-03-05T03:14:13.720Z,994.78
2019-03-05T03:15:13.798Z,994.81
2019-03-05T03:16:13.692Z,994.76
2019-03-05T03:17:13.742Z,994.77
2019-03-05T03:18:13.677Z,994.81
2019-03-05T03:19:13.748Z,994.84
2019-03-05T03:20:13.651Z,994.81
2019-03-05T03:21:13.739Z,994.87
2019-03-05T03:22:13.659Z,994.81
2019-03-05T03:23:13.665Z,994.89
2019-03-05T03:24:13.608Z,994.82
2019-03-05T03:25:13.664Z,994.82
2019-03-05T03:26:13.586Z,994.81
2019-03-05T03:27:13.735Z,994.89
2019-03-05T03:28:13.573Z,994.89
2019-03-05T03:29:13.598Z,994.92
2019-03-05T03:30:13.537Z,994.87
2019-03-05T03:31:13.604Z,994.99
2019-03-05T03:32:13.546Z,994.96
2019-03-05T03:33:13.651Z,994.99
2019-03-05T03:34:13.521Z,995.05
2019-03-05T03:35:13.533Z,995.04
2019-03-05T03:36:13.467Z,995.13
2019-03-05T03:37:13.611Z,995.09
2019-03-05T03:38:13.487Z,995.05
2019-03-05T03:39:13.575Z,995.12
2019-03-05T03:40:13.431Z,995.04
2019-03-05T03:41:13.472Z,995.13
2019-03-05T03:42:13.407Z,995.04
2019-03-05T03:43:13.513Z,994.99
2019-03-05T03:44:13.402Z,995.05
2019-03-05T03:45:13.500Z,995.05
2019-03-05T03:46:13.380Z,995.11
2019-03-05T03:47:13.409Z,995.07
2019-03-05T03:48:13.369Z,995.06
2019-03-05T03:49:13.423Z,995.08
2019-03-05T03:50:13.318Z,995.07
2019-03-05T03:51:13.357Z,994.96
2019-03-05T03:52:13.333Z,995.03
2019-03-05T03:53:13.417Z,995.07
2019-03-05T03:54:15.761Z,995.07
2019-03-05T03:55:13.363Z,995.08
2019-03-05T03:56:13.261Z,995.06
2019-03-05T03:57:13.294Z,995.14
2019-03-05T03:58:13.256Z,995.12
2019-03-05T03:59:13.286Z,995.08
2019-03-05T04:00:13.210Z,995.09
2019-03-05T04:01:13.295Z,995.12
2019-03-05T04:02:13.217Z,995.13
2019-03-05T04:03:13.246Z,995.15
2019-03-05T04:04:13.161Z,995.13
2019-03-05T04:05:13.237Z,995.10
2019-03-05T04:06:13.151Z,995.24
2019-03-05T04:07:13.244Z,995.16
2019-03-05T04:08:13.150Z,995.18
2019-03-05T04:09:13.154Z,995.23
2019-03-05T04:10:13.150Z,995.25
2019-03-05T04:11:13.168Z,995.22
2019-03-05T04:12:13.093Z,995.24
2019-03-05T04:13:13.182Z,995.20
2019-03-05T04:14:13.077Z,995.19
2019-03-05T04:15:13.089Z,995.22
2019-03-05T04:16:13.037Z,995.23
2019-03-05T04:17:13.106Z,995.28
2019-03-05T04:18:13.004Z,995.29
2019-03-05T04:19:13.050Z,995.28
2019-03-05T04:20:13.013Z,995.30
2019-03-05T04:21:13.058Z,995.26
2019-03-05T04:22:12.963Z,995.33
2019-03-05T04:23:13.080Z,995.37
2019-03-05T04:24:12.971Z,995.20
2019-03-05T04:25:12.954Z,995.28
2019-03-05T04:26:12.915Z,995.21
2019-03-05T04:27:12.971Z,995.35
2019-03-05T04:28:12.892Z,995.38
2019-03-05T04:29:13.029Z,995.39
2019-03-05T04:30:12.887Z,995.34
2019-03-05T04:31:12.892Z,995.36
2019-03-05T04:32:12.851Z,995.37
2019-03-05T04:33:12.905Z,995.41
2019-03-05T04:34:12.854Z,995.37
2019-03-05T04:35:12.922Z,995.41
2019-03-05T04:36:12.810Z,995.41
2019-03-05T04:37:12.836Z,995.42
2019-03-05T04:38:12.800Z,995.35
2019-03-05T04:39:12.875Z,995.34
2019-03-05T04:40:12.761Z,995.29
2019-03-05T04:41:12.860Z,995.29
2019-03-05T04:42:12.738Z,995.34
2019-03-05T04:43:12.780Z,995.34
2019-03-05T04:44:12.764Z,995.39
2019-03-05T04:45:12.786Z,995.38
2019-03-05T04:46:12.687Z,995.41
2019-03-05T04:47:12.801Z,995.46
2019-03-05T04:48:12.700Z,995.40
2019-03-05T04:49:12.740Z,995.37
2019-03-05T04:50:12.652Z,995.48
2019-03-05T04:51:12.727Z,995.36
2019-03-05T04:52:12.639Z,995.36
2019-03-05T04:53:12.764Z,995.47
2019-03-05T04:54:12.631Z,995.33
2019-03-05T04:55:12.692Z,995.41
2019-03-05T04:56:12.603Z,995.38
2019-03-05T04:57:12.660Z,995.38
2019-03-05T04:58:12.569Z,995.32
2019-03-05T04:59:12.573Z,995.35
2019-03-05T05:00:12.564Z,995.40
2019-03-05T05:01:12.604Z,995.47
2019-03-05T05:02:12.527Z,995.33
2019-03-05T05:03:12.604Z,995.36
2019-03-05T05:04:12.493Z,995.38
2019-03-05T05:05:12.603Z,995.38
2019-03-05T05:06:12.478Z,995.42
2019-03-05T05:07:12.541Z,995.46
2019-03-05T05:08:12.458Z,995.39
2019-03-05T05:09:12.543Z,995.44
2019-03-05T05:10:12.473Z,995.41
2019-03-05T05:11:12.459Z,995.47
2019-03-05T05:12:12.439Z,995.49
2019-03-05T05:13:12.464Z,995.51
2019-03-05T05:14:12.397Z,995.49
2019-03-05T05:15:12.543Z,995.44
2019-03-05T05:16:12.396Z,995.27
2019-03-05T05:17:12.393Z,995.47
2019-03-05T05:18:12.355Z,995.35
2019-03-05T05:19:12.490Z,995.36
2019-03-05T05:20:12.336Z,995.54
2019-03-05T05:21:12.425Z,995.48
2019-03-05T05:22:12.358Z,995.39
2019-03-05T05:23:12.335Z,995.39
2019-03-05T05:24:12.275Z,995.38
2019-03-05T05:25:12.382Z,995.50
2019-03-05T05:26:12.256Z,995.51
2019-03-05T05:27:12.368Z,995.46
2019-03-05T05:28:12.218Z,995.46
2019-03-05T05:29:12.279Z,995.47
2019-03-05T05:30:12.247Z,995.43
2019-03-05T05:31:12.289Z,995.45
2019-03-05T05:32:12.185Z,995.34
2019-03-05T05:33:12.196Z,995.38
2019-03-05T05:34:12.156Z,995.40
2019-03-05T05:35:12.214Z,995.34
2019-03-05T05:36:12.184Z,995.48
2019-03-05T05:37:12.234Z,995.33
2019-03-05T05:38:12.147Z,995.38
2019-03-05T05:39:12.136Z,995.31
2019-03-05T05:40:12.116Z,995.31
2019-03-05T05:41:12.200Z,995.36
2019-03-05T05:42:12.086Z,995.29
2019-03-05T05:43:12.169Z,995.31
2019-03-05T05:44:12.050Z,995.24
2019-03-05T05:45:12.077Z,995.31
2019-03-05T05:46:12.061Z,995.26
2019-03-05T05:47:12.022Z,995.31
2019-03-05T05:48:12.004Z,995.25
2019-03-05T05:49:12.125Z,995.28
2019-03-05T05:50:12.005Z,995.27
2019-03-05T05:51:12.044Z,995.24
2019-03-05T05:52:11.964Z,995.27
2019-03-05T05:53:12.037Z,995.26
2019-03-05T05:54:11.954Z,995.37
2019-03-05T05:55:12.045Z,995.36
2019-03-05T05:56:11.919Z,995.39
2019-03-05T05:57:11.986Z,995.38
2019-03-05T05:58:11.897Z,995.42
2019-03-05T05:59:11.969Z,995.39
2019-03-05T06:00:11.874Z,995.41
2019-03-05T06:01:11.915Z,995.39
2019-03-05T06:02:11.851Z,995.40
2019-03-05T06:03:11.890Z,995.41
2019-03-05T06:04:11.826Z,995.41
2019-03-05T06:05:11.907Z,995.38
2019-03-05T06:06:11.857Z,995.40
2019-03-05T06:07:11.830Z,995.37
2019-03-05T06:08:11.783Z,995.39
2019-03-05T06:09:11.842Z,995.34
2019-03-05T06:10:11.760Z,995.38
2019-03-05T06:11:11.856Z,995.39
2019-03-05T06:12:11.777Z,995.37
2019-03-05T06:13:11.754Z,995.38
2019-03-05T06:14:11.719Z,995.48
2019-03-05T06:15:11.779Z,995.48
2019-03-05T06:16:11.697Z,995.48
2019-03-05T06:17:11.856Z,995.42
2019-03-05T06:18:11.672Z,995.43
2019-03-05T06:19:11.700Z,995.51
2019-03-05T06:20:11.647Z,995.47
2019-03-05T06:21:11.712Z,995.48
2019-03-05T06:22:11.652Z,995.50
2019-03-05T06:23:11.732Z,995.45
2019-03-05T06:24:11.621Z,995.59
2019-03-05T06:25:11.639Z,995.54
2019-03-05T06:26:11.586Z,995.52
2019-03-05T06:27:11.684Z,995.63
2019-03-05T06:28:11.583Z,995.52
2019-03-05T06:29:11.669Z,995.51
2019-03-05T06:30:11.542Z,995.59
2019-03-05T06:31:11.582Z,995.54
2019-03-05T06:32:11.524Z,995.64
2019-03-05T06:33:11.622Z,995.65
2019-03-05T06:34:11.507Z,995.51
2019-03-05T06:35:11.609Z,995.53
2019-03-05T06:36:11.473Z,995.52
2019-03-05T06:37:11.512Z,995.60
2019-03-05T06:38:11.481Z,995.61
2019-03-05T06:39:11.560Z,995.50
2019-03-05T06:40:11.435Z,995.56
2019-03-05T06:41:11.544Z,995.55
2019-03-05T06:42:11.434Z,995.64
2019-03-05T06:43:11.492Z,995.58
2019-03-05T06:44:11.395Z,995.67
2019-03-05T06:45:11.380Z,995.72
2019-03-05T06:46:11.371Z,995.60
2019-03-05T06:47:11.364Z,995.64
2019-03-05T06:48:11.455Z,995.61
2019-03-05T06:49:11.331Z,995.65
2019-03-05T06:50:11.328Z,995.67
2019-03-05T06:51:11.317Z,995.71
2019-03-05T06:52:11.951Z,995.74
2019-03-05T06:53:11.327Z,995.74
2019-03-05T06:54:11.280Z,995.77
2019-03-05T06:55:11.269Z,995.73
2019-03-05T06:56:11.253Z,995.73
2019-03-05T06:57:11.247Z,995.75
2019-03-05T06:58:12.015Z,995.73
2019-03-05T06:59:11.283Z,995.72
2019-03-05T07:00:11.208Z,995.79
2019-03-05T07:01:11.206Z,995.78
2019-03-05T07:02:11.188Z,995.92
2019-03-05T07:03:11.323Z,995.77
2019-03-05T07:04:11.175Z,995.81
2019-03-05T07:05:11.168Z,995.94
2019-03-05T07:06:11.146Z,995.99
2019-03-05T07:07:11.135Z,995.95
2019-03-05T07:08:11.159Z,995.97
2019-03-05T07:09:11.150Z,995.93
2019-03-05T07:10:11.102Z,995.89
2019-03-05T07:11:11.131Z,995.93
2019-03-05T07:12:11.081Z,995.97
2019-03-05T07:13:11.079Z,995.98
2019-03-05T07:14:11.080Z,996.02
2019-03-05T07:15:11.050Z,996.05
2019-03-05T07:16:11.037Z,996.05
2019-03-05T07:17:11.025Z,996.01
2019-03-05T07:18:11.013Z,996.14
2019-03-05T07:19:11.046Z,996.03
2019-03-05T07:20:11.012Z,996.06
2019-03-05T07:21:10.999Z,996.19
2019-03-05T07:22:10.998Z,996.01
2019-03-05T07:23:10.957Z,996.05
2019-03-05T07:24:10.974Z,996.08
2019-03-05T07:25:10.937Z,996.08
2019-03-05T07:26:10.945Z,996.04
2019-03-05T07:27:10.933Z,996.11
2019-03-05T07:28:10.933Z,996.07
2019-03-05T07:29:10.947Z,996.08
2019-03-05T07:30:10.877Z,996.12
2019-03-05T07:31:10.896Z,996.10
2019-03-05T07:32:10.873Z,996.18
2019-03-05T07:33:10.849Z,996.17
2019-03-05T07:34:10.862Z,996.20
2019-03-05T07:35:10.831Z,996.23
2019-03-05T07:36:10.812Z,996.29
2019-03-05T07:37:10.842Z,996.33
2019-03-05T07:38:10.874Z,996.24
2019-03-05T07:39:10.850Z,996.33
2019-03-05T07:40:10.772Z,996.40
2019-03-05T07:41:10.761Z,996.34
2019-03-05T07:42:10.833Z,996.38
2019-03-05T07:43:10.748Z,996.36
2019-03-05T07:44:10.764Z,996.38
2019-03-05T07:45:10.720Z,996.45
2019-03-05T07:46:10.708Z,996.38
2019-03-05T07:47:10.703Z,996.44
2019-03-05T07:48:10.690Z,996.39
2019-03-05T07:49:10.683Z,996.47
2019-03-05T07:50:10.689Z,996.41
2019-03-05T07:51:10.653Z,996.37
2019-03-05T07:52:10.637Z,996.39
2019-03-05T07:53:10.634Z,996.38
2019-03-05T07:54:10.623Z,996.39
2019-03-05T07:55:13.884Z,996.51
2019-03-05T07:56:10.594Z,996.46
2019-03-05T07:57:10.587Z,996.45
2019-03-05T07:58:10.568Z,996.46
2019-03-05T07:59:10.674Z,996.49
2019-03-05T08:00:10.593Z,996.53
2019-03-05T08:01:21.519Z,996.53
2019-03-05T08:02:11.529Z,996.54
2019-03-05T08:03:10.585Z,996.60
2019-03-05T08:04:10.530Z,996.61
2019-03-05T08:05:10.630Z,996.62
2019-03-05T08:06:10.520Z,996.66
2019-03-05T08:08:11.619Z,996.60
2019-03-05T08:09:10.457Z,996.64
2019-03-05T08:10:10.469Z,996.68
2019-03-05T08:11:10.562Z,996.60
2019-03-05T08:12:10.438Z,996.68
2019-03-05T08:13:10.461Z,996.71
2019-03-05T08:14:10.396Z,996.79
2019-03-05T08:15:10.460Z,996.76
2019-03-05T08:16:10.435Z,996.74
2019-03-05T08:17:10.493Z,996.75
2019-03-05T08:18:10.365Z,996.81
2019-03-05T08:19:10.414Z,996.78
2019-03-05T08:20:10.353Z,996.84
2019-03-05T08:21:10.431Z,996.76
2019-03-05T08:22:10.306Z,996.85
2019-03-05T08:23:10.410Z,996.84
2019-03-05T08:24:10.311Z,996.84
2019-03-05T08:25:10.352Z,996.83
2019-03-05T08:26:10.288Z,996.82
2019-03-05T08:27:10.336Z,996.85
2019-03-05T08:28:10.243Z,996.87
2019-03-05T08:29:10.353Z,996.88
2019-03-05T08:30:14.254Z,996.86
2019-03-05T08:31:10.247Z,996.91
2019-03-05T08:32:10.199Z,996.93
2019-03-05T08:33:10.209Z,996.94
2019-03-05T08:34:10.188Z,996.98
2019-03-05T08:35:10.176Z,997.01
2019-03-05T08:36:10.197Z,997.02
2019-03-05T08:37:10.212Z,997.16
2019-03-05T08:38:10.139Z,997.03
2019-03-05T08:39:10.173Z,997.06
2019-03-05T08:40:10.113Z,997.14
2019-03-05T08:41:10.114Z,997.04
2019-03-05T08:42:10.128Z,997.02
2019-03-05T08:43:10.094Z,997.10
2019-03-05T08:44:10.078Z,997.12
2019-03-05T08:46:11.188Z,997.11
2019-03-05T08:47:10.062Z,997.28
2019-03-05T08:48:10.060Z,997.19
2019-03-05T08:49:10.020Z,997.24
2019-03-05T08:50:10.006Z,997.21
2019-03-05T08:51:10.005Z,997.22
2019-03-05T08:52:10.006Z,997.40
2019-03-05T08:53:10.015Z,997.25
2019-03-05T08:54:09.965Z,997.29
2019-03-05T08:55:09.958Z,997.30
2019-03-05T08:56:09.948Z,997.32
2019-03-05T08:57:10.018Z,997.27
2019-03-05T08:58:09.907Z,997.40
2019-03-05T08:59:09.930Z,997.35
2019-03-05T09:00:09.891Z,997.43
2019-03-05T09:01:09.898Z,997.43
2019-03-05T09:02:09.905Z,997.39
2019-03-05T09:03:09.896Z,997.29
2019-03-05T09:04:09.874Z,997.42
2019-03-05T09:05:09.841Z,997.46
2019-03-05T09:06:09.827Z,997.40
2019-03-05T09:07:09.851Z,997.36
2019-03-05T09:08:09.852Z,997.48
2019-03-05T09:09:09.795Z,997.50
2019-03-05T09:10:09.781Z,997.51
2019-03-05T09:11:09.814Z,997.54
2019-03-05T09:12:09.826Z,997.55
2019-03-05T09:13:09.791Z,997.63
2019-03-05T09:14:09.744Z,997.63
2019-03-05T09:16:10.849Z,997.62
2019-03-05T09:17:09.713Z,997.67
2019-03-05T09:18:09.731Z,997.60
2019-03-05T09:19:09.690Z,997.67
2019-03-05T09:20:09.668Z,997.61
2019-03-05T09:21:09.668Z,997.71
2019-03-05T09:22:09.652Z,997.67
2019-03-05T09:23:09.648Z,997.69
2019-03-05T09:24:09.656Z,997.65
2019-03-05T09:25:09.617Z,997.71
2019-03-05T09:26:09.605Z,997.74
2019-03-05T09:27:09.594Z,997.74
2019-03-05T09:28:09.580Z,997.81
2019-03-05T09:29:09.605Z,997.84
2019-03-05T09:30:09.556Z,997.82
2019-03-05T09:31:09.574Z,997.76
2019-03-05T09:32:09.539Z,997.82
2019-03-05T09:33:09.540Z,997.81
2019-03-05T09:34:09.537Z,997.79
2019-03-05T09:35:09.534Z,997.74
2019-03-05T09:36:09.492Z,997.77
2019-03-05T09:37:09.613Z,997.82
2019-03-05T09:38:09.477Z,997.85
2019-03-05T09:39:09.539Z,997.86
2019-03-05T09:40:09.454Z,997.84
2019-03-05T09:41:09.526Z,997.83
2019-03-05T09:42:09.439Z,997.87
2019-03-05T09:43:09.537Z,997.91
2019-03-05T09:44:09.440Z,997.86
2019-03-05T09:45:09.463Z,997.83
2019-03-05T09:46:09.394Z,997.83
2019-03-05T09:47:09.493Z,997.95
2019-03-05T09:48:09.357Z,997.94
2019-03-05T09:49:09.515Z,997.93
2019-03-05T09:50:09.350Z,997.93
2019-03-05T09:51:09.396Z,997.86
2019-03-05T09:52:09.324Z,997.86
2019-03-05T09:53:09.405Z,997.89
2019-03-05T09:54:09.322Z,997.93
2019-03-05T09:55:09.319Z,997.99
2019-03-05T09:56:09.278Z,997.99
2019-03-05T09:57:09.332Z,998.02
2019-03-05T09:58:09.249Z,997.98
2019-03-05T09:59:09.384Z,998.00
2019-03-05T10:00:09.235Z,998.03
2019-03-05T10:01:09.258Z,998.01
2019-03-05T10:02:09.225Z,998.05
2019-03-05T10:03:09.264Z,998.03
2019-03-05T10:04:09.239Z,998.03
2019-03-05T10:05:09.306Z,998.05
2019-03-05T10:06:09.184Z,998.05
2019-03-05T10:07:18.614Z,998.10
2019-03-05T10:08:10.140Z,998.09
2019-03-05T10:09:09.146Z,998.15
2019-03-05T10:10:09.157Z,998.11
2019-03-05T10:11:09.146Z,998.15
2019-03-05T10:12:09.116Z,998.20
2019-03-05T10:13:09.095Z,998.16
2019-03-05T10:14:09.089Z,998.18
2019-03-05T10:15:09.107Z,998.14
2019-03-05T10:16:09.049Z,998.16
2019-03-05T10:17:09.063Z,998.20
2019-03-05T10:18:12.917Z,998.15
2019-03-05T10:19:09.033Z,998.18
2019-03-05T10:20:09.039Z,998.11
2019-03-05T10:21:11.729Z,998.18
2019-03-05T10:22:09.021Z,998.32
2019-03-05T10:23:08.985Z,998.25
2019-03-05T10:24:10.842Z,998.11
2019-03-05T10:25:08.995Z,998.13
2019-03-05T10:26:10.583Z,998.22
2019-03-05T10:28:10.066Z,998.24
2019-03-05T10:29:08.924Z,998.18
2019-03-05T10:30:08.902Z,998.25
2019-03-05T10:31:08.952Z,998.14
2019-03-05T10:32:08.875Z,998.18
2019-03-05T10:33:08.878Z,998.05
2019-03-05T10:34:08.862Z,998.10
2019-03-05T10:35:08.849Z,998.16
2019-03-05T10:36:08.875Z,998.12
2019-03-05T10:37:14.506Z,998.11
2019-03-05T10:38:09.810Z,998.10
2019-03-05T10:39:08.803Z,998.08
2019-03-05T10:40:08.790Z,998.12
2019-03-05T10:41:08.823Z,998.17
2019-03-05T10:42:08.776Z,998.12
2019-03-05T10:43:09.171Z,998.21
2019-03-05T10:44:08.753Z,998.19
2019-03-05T10:45:08.743Z,998.23
2019-03-05T10:46:08.755Z,998.20
2019-03-05T10:47:08.728Z,998.27
2019-03-05T10:48:08.699Z,998.36
2019-03-05T10:49:08.701Z,998.26
2019-03-05T10:50:15.287Z,998.34
2019-03-05T10:51:09.691Z,998.27
2019-03-05T10:52:08.650Z,998.28
2019-03-05T10:53:08.656Z,998.28
2019-03-05T10:54:08.639Z,998.38
2019-03-05T10:55:08.626Z,998.43
2019-03-05T10:56:08.646Z,998.43
2019-03-05T10:57:08.627Z,998.38
2019-03-05T10:58:08.615Z,998.47
2019-03-05T10:59:08.578Z,998.43
2019-03-05T11:00:08.570Z,998.49
2019-03-05T11:01:08.553Z,998.42
2019-03-05T11:02:08.540Z,998.46
2019-03-05T11:03:08.581Z,998.45
2019-03-05T11:04:08.553Z,998.51
2019-03-05T11:05:08.511Z,998.62
2019-03-05T11:06:08.508Z,998.45
2019-03-05T11:07:08.495Z,998.51
2019-03-05T11:08:08.502Z,998.47
2019-03-05T11:09:08.478Z,998.53
2019-03-05T11:10:08.462Z,998.52
2019-03-05T11:11:13.581Z,998.56
2019-03-05T11:12:09.462Z,998.54
2019-03-05T11:13:08.462Z,998.58
2019-03-05T11:14:08.414Z,998.61
2019-03-05T11:15:08.403Z,998.57
2019-03-05T11:16:08.385Z,998.61
2019-03-05T11:17:08.382Z,998.59
2019-03-05T11:18:08.380Z,998.61
2019-03-05T11:19:08.354Z,998.64
2019-03-05T11:20:08.349Z,998.59
2019-03-05T11:21:08.333Z,998.60
2019-03-05T11:22:08.558Z,998.61
2019-03-05T11:23:08.330Z,998.63
2019-03-05T11:24:08.303Z,998.57
2019-03-05T11:25:08.300Z,998.60
2019-03-05T11:26:08.296Z,998.54
2019-03-05T11:27:08.297Z,998.62
2019-03-05T11:28:08.246Z,998.66
2019-03-05T11:29:08.253Z,998.63
2019-03-05T11:30:08.227Z,998.64
2019-03-05T11:31:08.273Z,998.71
2019-03-05T11:32:08.206Z,998.68
2019-03-05T11:33:08.245Z,998.73
2019-03-05T11:34:08.220Z,998.74
2019-03-05T11:35:08.176Z,998.75
2019-03-05T11:36:08.165Z,998.69
2019-03-05T11:37:08.158Z,998.71
2019-03-05T11:38:08.171Z,998.68
2019-03-05T11:39:08.154Z,998.78
2019-03-05T11:40:08.116Z,998.77
2019-03-05T11:41:08.134Z,998.82
2019-03-05T11:42:08.097Z,998.77
2019-03-05T11:43:08.113Z,998.80
2019-03-05T11:44:08.111Z,998.73
2019-03-05T11:45:11.528Z,998.71
2019-03-05T11:46:08.056Z,998.76
2019-03-05T11:47:29.046Z,998.77
2019-03-05T11:48:08.046Z,998.79
2019-03-05T11:49:08.044Z,998.79
2019-03-05T11:50:08.001Z,998.85
2019-03-05T11:51:08.003Z,998.80
2019-03-05T11:52:07.979Z,998.83
2019-03-05T11:53:08.084Z,998.80
2019-03-05T11:54:07.993Z,998.82
2019-03-05T11:55:08.015Z,998.83
2019-03-05T11:56:07.933Z,998.89
2019-03-05T11:57:08.010Z,998.91
2019-03-05T11:58:07.958Z,998.90
2019-03-05T11:59:08.072Z,998.93
2019-03-05T12:00:07.956Z,998.99
2019-03-05T12:01:07.933Z,998.93
2019-03-05T12:02:09.769Z,998.92
2019-03-05T12:03:07.949Z,998.92
2019-03-05T12:04:07.871Z,998.93
2019-03-05T12:05:07.963Z,998.97
2019-03-05T12:06:07.831Z,999.02
2019-03-05T12:07:07.874Z,999.03
2019-03-05T12:08:07.800Z,999.00
2019-03-05T12:09:07.932Z,998.95
2019-03-05T12:10:07.784Z,999.00
2019-03-05T12:11:07.806Z,998.99
2019-03-05T12:12:07.756Z,998.98
2019-03-05T12:14:09.072Z,998.95
2019-03-05T12:15:07.827Z,999.04
2019-03-05T12:16:07.747Z,998.98
2019-03-05T12:17:07.739Z,999.11
2019-03-05T12:18:07.755Z,999.08
2019-03-05T12:19:07.784Z,999.07
2019-03-05T12:20:07.689Z,999.08
2019-03-05T12:21:07.769Z,999.11
2019-03-05T12:22:07.655Z,999.04
2019-03-05T12:23:10.471Z,999.07
2019-03-05T12:24:07.663Z,999.12
2019-03-05T12:25:07.697Z,999.01
2019-03-05T12:26:07.645Z,999.08
2019-03-05T12:27:07.704Z,999.10
2019-03-05T12:28:10.571Z,999.13
2019-03-05T12:29:07.618Z,999.10
2019-03-05T12:30:07.600Z,999.09
2019-03-05T12:31:07.634Z,999.21
2019-03-05T12:32:07.538Z,999.11
2019-03-05T12:33:07.646Z,999.23
2019-03-05T12:34:07.512Z,999.19
2019-03-05T12:35:07.587Z,999.26
2019-03-05T12:36:07.493Z,999.26
2019-03-05T12:37:07.566Z,999.23
2019-03-05T12:38:07.471Z,999.37
2019-03-05T12:39:07.592Z,999.28
2019-03-05T12:40:07.502Z,999.24
2019-03-05T12:41:07.494Z,999.28
2019-03-05T12:42:07.435Z,999.40
2019-03-05T12:43:07.527Z,999.26
2019-03-05T12:44:07.457Z,999.23